createdAt,value
2023-02-11T00:00:25.278Z,19.1
2023-02-11T00:02:25.324Z,19
2023-02-11T00:03:18.984Z,19
2023-02-11T00:04:24.473Z,19.1
2023-02-11T00:06:24.424Z,19
2023-02-11T00:08:24.438Z,18.9
2023-02-11T00:10:24.455Z,18.9
2023-02-11T00:12:24.411Z,18.8
2023-02-11T00:14:24.503Z,18.9
2023-02-11T00:16:24.503Z,18.8
2023-02-11T00:18:24.421Z,18.7
2023-02-11T00:20:24.439Z,18.7
2023-02-11T00:22:24.370Z,18.7
2023-02-11T00:24:24.394Z,18.8
2023-02-11T00:26:24.436Z,18.8
2023-02-11T00:28:25.632Z,18.8
2023-02-11T00:30:24.527Z,18.8
2023-02-11T00:32:24.359Z,18.8
2023-02-11T00:34:24.408Z,18.8
2023-02-11T00:36:00.370Z,18.8
2023-02-11T00:37:19.705Z,18.8
2023-02-11T00:39:19.682Z,18.8
2023-02-11T00:41:19.862Z,18.7
2023-02-11T00:43:19.702Z,18.7
2023-02-11T00:45:19.675Z,18.7
2023-02-11T00:47:19.850Z,18.6
2023-02-11T00:49:19.745Z,18.6
2023-02-11T00:51:20.701Z,18.7
2023-02-11T00:53:19.694Z,18.6
2023-02-11T00:55:19.723Z,18.7
2023-02-11T00:57:19.691Z,18.6
2023-02-11T00:59:19.809Z,18.6
2023-02-11T01:01:19.733Z,18.6
2023-02-11T01:03:19.670Z,18.5
2023-02-11T01:05:19.739Z,18.6
2023-02-11T01:07:19.658Z,18.5
2023-02-11T01:09:20.732Z,18.4
2023-02-11T01:11:21.011Z,18.2
2023-02-11T01:13:19.661Z,18.3
2023-02-11T01:15:19.775Z,18.3
2023-02-11T01:17:19.658Z,18.3
2023-02-11T01:19:19.669Z,18.3
2023-02-11T01:21:19.654Z,18.2
2023-02-11T01:23:19.633Z,18.2
2023-02-11T01:25:19.709Z,18.4
2023-02-11T01:27:19.680Z,18.2
2023-02-11T01:29:19.626Z,18.1
2023-02-11T01:31:19.699Z,18.1
2023-02-11T01:33:19.776Z,18
2023-02-11T01:35:19.640Z,18.2
2023-02-11T01:37:19.682Z,18.2
2023-02-11T01:39:19.636Z,18.1
2023-02-11T01:41:19.648Z,18
2023-02-11T01:43:19.650Z,17.9
2023-02-11T01:45:19.636Z,17.8
2023-02-11T01:47:19.638Z,17.8
2023-02-11T01:49:19.729Z,17.8
2023-02-11T01:51:19.700Z,17.7
2023-02-11T01:53:19.594Z,17.7
2023-02-11T01:55:19.636Z,17.8
2023-02-11T01:57:19.607Z,17.8
2023-02-11T01:59:19.600Z,17.8
2023-02-11T02:01:19.644Z,17.8
2023-02-11T02:03:19.662Z,17.9
2023-02-11T02:05:19.683Z,18
2023-02-11T02:07:19.715Z,17.8
2023-02-11T02:09:19.597Z,17.8
2023-02-11T02:11:19.588Z,17.8
2023-02-11T02:13:19.592Z,17.7
2023-02-11T02:15:19.610Z,17.7
2023-02-11T02:17:19.617Z,17.5
2023-02-11T02:19:19.635Z,17.4
2023-02-11T02:21:20.910Z,17.5
2023-02-11T02:23:19.559Z,17.5
2023-02-11T02:25:19.575Z,17.7
2023-02-11T02:27:19.572Z,17.6
2023-02-11T02:29:19.598Z,17.6
2023-02-11T02:31:20.072Z,17.5
2023-02-11T02:33:22.874Z,17.4
2023-02-11T02:35:19.611Z,17.5
2023-02-11T02:37:19.640Z,17.5
2023-02-11T02:39:19.555Z,17.5
2023-02-11T02:41:19.577Z,17.3
2023-02-11T02:43:19.571Z,17.4
2023-02-11T02:45:19.563Z,17.4
2023-02-11T02:47:19.571Z,17.2
2023-02-11T02:49:11.321Z,17.2
2023-02-11T02:50:27.889Z,17.2
2023-02-11T02:52:27.947Z,17.2
2023-02-11T02:54:27.814Z,17.2
2023-02-11T02:56:27.776Z,17.2
2023-02-11T02:58:27.911Z,17.2
2023-02-11T03:00:27.937Z,17.2
2023-02-11T03:02:29.135Z,17.2
2023-02-11T03:04:27.815Z,17.3
2023-02-11T03:06:27.765Z,17.3
2023-02-11T03:08:27.805Z,17.2
2023-02-11T03:10:27.869Z,17.2
2023-02-11T03:12:27.856Z,17.2
2023-02-11T03:14:27.780Z,17.3
2023-02-11T03:16:27.891Z,17.2
2023-02-11T03:18:27.805Z,17.1
2023-02-11T03:20:27.832Z,17.1
2023-02-11T03:22:27.810Z,17.1
2023-02-11T03:24:27.871Z,17.1
2023-02-11T03:26:09.364Z,17
2023-02-11T03:27:05.380Z,17
2023-02-11T03:29:05.402Z,17.1
2023-02-11T03:31:05.445Z,17
2023-02-11T03:33:05.417Z,16.9
2023-02-11T03:35:05.458Z,17
2023-02-11T03:37:05.380Z,17
2023-02-11T03:39:05.448Z,16.9
2023-02-11T03:41:05.389Z,16.9
2023-02-11T03:43:05.367Z,17
2023-02-11T03:45:05.359Z,16.9
2023-02-11T03:47:05.336Z,16.8
2023-02-11T03:49:05.345Z,16.7
2023-02-11T03:51:05.437Z,16.7
2023-02-11T03:53:05.354Z,16.6
2023-02-11T03:55:05.331Z,16.7
2023-02-11T03:57:05.345Z,16.7
2023-02-11T03:59:05.377Z,16.6
2023-02-11T04:01:05.436Z,16.6
2023-02-11T04:03:05.432Z,16.7
2023-02-11T04:05:05.342Z,16.7
2023-02-11T04:07:05.320Z,16.7
2023-02-11T04:09:05.335Z,16.7
2023-02-11T04:11:05.350Z,16.7
2023-02-11T04:13:05.329Z,16.6
2023-02-11T04:15:05.342Z,16.6
2023-02-11T04:17:05.355Z,16.5
2023-02-11T04:19:05.362Z,16.5
2023-02-11T04:21:05.324Z,16.6
2023-02-11T04:23:05.456Z,16.5
2023-02-11T04:25:05.377Z,16.5
2023-02-11T04:27:05.316Z,16.3
2023-02-11T04:29:05.378Z,16.3
2023-02-11T04:31:05.561Z,16.2
2023-02-11T04:33:05.317Z,16.2
2023-02-11T04:35:05.335Z,16.1
2023-02-11T04:37:05.320Z,16
2023-02-11T04:39:05.313Z,16
2023-02-11T04:41:05.316Z,15.9
2023-02-11T04:43:05.279Z,15.9
2023-02-11T04:45:05.306Z,16
2023-02-11T04:47:05.310Z,16.1
2023-02-11T04:49:05.336Z,15.9
2023-02-11T04:51:05.334Z,15.7
2023-02-11T04:53:05.285Z,15.7
2023-02-11T04:55:05.287Z,15.6
2023-02-11T04:57:05.301Z,15.6
2023-02-11T04:59:05.266Z,15.6
2023-02-11T05:01:05.269Z,15.5
2023-02-11T05:03:05.270Z,15.4
2023-02-11T05:05:05.257Z,15.5
2023-02-11T05:07:05.281Z,15.5
2023-02-11T05:09:05.300Z,15.3
2023-02-11T05:11:05.240Z,15.3
2023-02-11T05:13:05.273Z,15.5
2023-02-11T05:15:05.243Z,15.4
2023-02-11T05:17:05.272Z,15.2
2023-02-11T05:19:05.277Z,15.1
2023-02-11T05:21:05.254Z,15.2
2023-02-11T05:23:05.255Z,15.2
2023-02-11T05:25:05.241Z,15.2
2023-02-11T05:27:05.348Z,15.2
2023-02-11T05:29:05.534Z,15
2023-02-11T05:31:05.333Z,15
2023-02-11T05:33:05.244Z,15.1
2023-02-11T05:35:05.230Z,15
2023-02-11T05:37:05.350Z,15
2023-02-11T05:39:05.248Z,15.1
2023-02-11T05:41:05.250Z,15
2023-02-11T05:43:05.214Z,15
2023-02-11T05:45:05.220Z,15
2023-02-11T05:47:05.220Z,14.9
2023-02-11T05:49:05.215Z,14.9
2023-02-11T05:51:05.217Z,15
2023-02-11T05:53:05.222Z,14.8
2023-02-11T05:55:05.233Z,14.8
2023-02-11T05:57:05.230Z,14.8
2023-02-11T05:59:05.263Z,14.9
2023-02-11T06:01:05.204Z,14.8
2023-02-11T06:03:05.210Z,14.8
2023-02-11T06:05:05.177Z,14.9
2023-02-11T06:07:05.209Z,14.8
2023-02-11T06:09:05.151Z,14.8
2023-02-11T06:11:05.297Z,14.7
2023-02-11T06:13:05.207Z,14.7
2023-02-11T06:15:05.164Z,14.7
2023-02-11T06:17:05.195Z,14.7
2023-02-11T06:19:05.282Z,14.6
2023-02-11T06:21:05.166Z,14.6
2023-02-11T06:23:05.173Z,14.6
2023-02-11T06:25:05.168Z,14.8
2023-02-11T06:27:05.220Z,14.6
2023-02-11T06:29:05.192Z,14.5
2023-02-11T06:31:05.208Z,14.6
2023-02-11T06:33:05.157Z,14.6
2023-02-11T06:35:05.205Z,14.6
2023-02-11T06:37:05.223Z,14.4
2023-02-11T06:39:05.187Z,14.4
2023-02-11T06:41:05.141Z,14.4
2023-02-11T06:43:05.170Z,14.3
2023-02-11T06:45:05.179Z,14.5
2023-02-11T06:47:05.141Z,14.4
2023-02-11T06:49:05.161Z,14.5
2023-02-11T06:51:05.151Z,14.4
2023-02-11T06:53:05.153Z,14.4
2023-02-11T06:55:05.089Z,14.4
2023-02-11T06:57:05.116Z,14.3
2023-02-11T06:59:05.157Z,14.2
2023-02-11T07:01:05.106Z,14.3
2023-02-11T07:03:05.157Z,14.2
2023-02-11T07:05:05.145Z,14.3
2023-02-11T07:07:05.130Z,14.2
2023-02-11T07:09:05.104Z,14.2
2023-02-11T07:11:05.104Z,14.2
2023-02-11T07:13:05.133Z,14.2
2023-02-11T07:15:05.104Z,14.2
2023-02-11T07:17:05.098Z,14.2
2023-02-11T07:19:05.099Z,14.2
2023-02-11T07:21:05.111Z,14.2
2023-02-11T07:23:05.113Z,14.2
2023-02-11T07:25:05.104Z,14.2
2023-02-11T07:27:05.105Z,14.1
2023-02-11T07:29:05.086Z,14.1
2023-02-11T07:31:05.279Z,14
2023-02-11T07:33:05.104Z,14
2023-02-11T07:35:05.144Z,14.1
2023-02-11T07:37:05.091Z,14
2023-02-11T07:39:05.090Z,14.1
2023-02-11T07:41:05.075Z,14.1
2023-02-11T07:43:05.063Z,14
2023-02-11T07:45:05.066Z,14.3
2023-02-11T07:47:05.127Z,14
2023-02-11T07:49:05.065Z,14
2023-02-11T07:51:05.098Z,13.9
2023-02-11T07:53:05.098Z,13.9
2023-02-11T07:55:05.154Z,14
2023-02-11T07:57:05.054Z,13.8
2023-02-11T07:59:05.068Z,13.8
2023-02-11T08:01:05.059Z,13.8
2023-02-11T08:03:05.041Z,13.9
2023-02-11T08:05:05.073Z,13.9
2023-02-11T08:07:05.038Z,13.8
2023-02-11T08:09:05.048Z,13.7
2023-02-11T08:11:05.040Z,13.7
2023-02-11T08:13:05.066Z,13.6
2023-02-11T08:15:05.063Z,13.7
2023-02-11T08:17:05.024Z,13.7
2023-02-11T08:19:05.040Z,13.7
2023-02-11T08:21:05.095Z,13.7
2023-02-11T08:23:04.989Z,13.6
2023-02-11T08:25:05.063Z,13.7
2023-02-11T08:27:05.031Z,13.6
2023-02-11T08:29:05.046Z,13.6
2023-02-11T08:31:05.091Z,13.7
2023-02-11T08:33:05.013Z,13.7
2023-02-11T08:35:05.055Z,13.7
2023-02-11T08:37:05.012Z,13.7
2023-02-11T08:39:17.843Z,13.6
2023-02-11T08:41:05.022Z,13.6
2023-02-11T08:43:07.656Z,13.7
2023-02-11T08:45:05.002Z,13.6
2023-02-11T08:47:04.995Z,13.6
2023-02-11T08:49:04.978Z,13.6
2023-02-11T08:51:04.970Z,13.5
2023-02-11T08:53:04.972Z,13.5
2023-02-11T08:55:04.994Z,13.5
2023-02-11T08:57:05.004Z,13.5
2023-02-11T08:59:04.980Z,13.5
2023-02-11T09:01:05.040Z,13.5
2023-02-11T09:03:04.994Z,13.5
2023-02-11T09:05:04.984Z,13.5
2023-02-11T09:07:05.004Z,13.5
2023-02-11T09:09:04.954Z,13.5
2023-02-11T09:11:04.955Z,13.5
2023-02-11T09:13:04.971Z,13.5
2023-02-11T09:15:04.987Z,13.6
2023-02-11T09:17:05.084Z,13.6
2023-02-11T09:19:04.982Z,13.6
2023-02-11T09:21:04.954Z,13.6
2023-02-11T09:23:04.932Z,13.6
2023-02-11T09:25:05.015Z,13.6
2023-02-11T09:27:04.962Z,13.7
2023-02-11T09:29:04.943Z,13.6
2023-02-11T09:31:05.035Z,13.6
2023-02-11T09:33:04.981Z,13.6
2023-02-11T09:35:04.991Z,13.6
2023-02-11T09:37:04.923Z,13.6
2023-02-11T09:39:04.943Z,13.6
2023-02-11T09:41:05.058Z,13.6
2023-02-11T09:43:04.948Z,13.6
2023-02-11T09:45:04.929Z,13.6
2023-02-11T09:47:04.942Z,13.6
2023-02-11T09:49:04.929Z,13.6
2023-02-11T09:51:05.016Z,13.6
2023-02-11T09:53:04.925Z,13.5
2023-02-11T09:55:04.954Z,13.5
2023-02-11T09:57:04.901Z,13.5
2023-02-11T09:59:04.912Z,13.4
2023-02-11T10:01:04.991Z,13.4
2023-02-11T10:03:04.918Z,13.4
2023-02-11T10:05:04.897Z,13.5
2023-02-11T10:07:04.913Z,13.4
2023-02-11T10:09:04.911Z,13.4
2023-02-11T10:11:04.888Z,13.4
2023-02-11T10:13:04.893Z,13.4
2023-02-11T10:15:04.884Z,13.5
2023-02-11T10:17:04.879Z,13.5
2023-02-11T10:19:04.901Z,13.4
2023-02-11T10:21:04.900Z,13.4
2023-02-11T10:23:04.891Z,13.3
2023-02-11T10:25:04.871Z,13.3
2023-02-11T10:27:04.900Z,13.3
2023-02-11T10:29:04.898Z,13.1
2023-02-11T10:31:04.996Z,13.2
2023-02-11T10:33:04.913Z,13.2
2023-02-11T10:35:04.878Z,13.3
2023-02-11T10:37:04.869Z,13.3
2023-02-11T10:39:04.919Z,13.3
2023-02-11T10:41:04.862Z,13.3
2023-02-11T10:43:04.899Z,13.2
2023-02-11T10:45:04.904Z,13.2
2023-02-11T10:47:04.864Z,13.2
2023-02-11T10:49:04.860Z,13.3
2023-02-11T10:51:04.860Z,13.3
2023-02-11T10:53:04.847Z,13.3
2023-02-11T10:55:07.368Z,13.3
2023-02-11T10:57:04.860Z,13.3
2023-02-11T10:59:04.879Z,13.2
2023-02-11T11:01:10.252Z,13.2
2023-02-11T11:03:04.832Z,13.1
2023-02-11T11:05:04.952Z,13.2
2023-02-11T11:07:04.836Z,13.2
2023-02-11T11:09:04.824Z,13.2
2023-02-11T11:11:04.810Z,13.2
2023-02-11T11:13:04.854Z,13.2
2023-02-11T11:15:04.847Z,13.2
2023-02-11T11:17:04.833Z,13.2
2023-02-11T11:19:04.844Z,13.2
2023-02-11T11:21:04.840Z,13.2
2023-02-11T11:23:04.827Z,13.1
2023-02-11T11:25:04.840Z,13.2
2023-02-11T11:27:04.791Z,13.2
2023-02-11T11:29:04.845Z,13
2023-02-11T11:31:05.084Z,13
2023-02-11T11:33:04.833Z,13
2023-02-11T11:35:04.845Z,12.9
2023-02-11T11:37:04.876Z,13
2023-02-11T11:39:04.786Z,12.9
2023-02-11T11:41:05.101Z,13
2023-02-11T11:43:04.962Z,13
2023-02-11T11:45:05.048Z,12.9
2023-02-11T11:47:04.793Z,13
2023-02-11T11:49:04.845Z,12.9
2023-02-11T11:51:04.777Z,12.9
2023-02-11T11:53:04.783Z,13
2023-02-11T11:55:04.911Z,12.9
2023-02-11T11:57:04.804Z,13
2023-02-11T11:59:04.901Z,13
2023-02-11T12:01:04.783Z,12.8
2023-02-11T12:03:05.005Z,12.9
2023-02-11T12:05:04.935Z,12.9
2023-02-11T12:07:06.051Z,13
2023-02-11T12:09:04.944Z,13
2023-02-11T12:11:04.771Z,13
2023-02-11T12:13:04.903Z,12.9
2023-02-11T12:15:04.834Z,12.9
2023-02-11T12:17:04.958Z,13
2023-02-11T12:19:04.798Z,12.9
2023-02-11T12:21:04.749Z,13
2023-02-11T12:23:04.779Z,13
2023-02-11T12:25:07.591Z,13
2023-02-11T12:27:04.865Z,13.1
2023-02-11T12:29:04.737Z,13.1
2023-02-11T12:31:06.229Z,13.1
2023-02-11T12:33:05.051Z,13.1
2023-02-11T12:35:04.976Z,13
2023-02-11T12:37:07.514Z,13.1
2023-02-11T12:39:04.973Z,13.1
2023-02-11T12:41:06.122Z,13.2
2023-02-11T12:43:04.758Z,13.2
2023-02-11T12:45:04.822Z,13.2
2023-02-11T12:47:04.758Z,13.3
2023-02-11T12:49:06.147Z,13.3
2023-02-11T12:51:04.792Z,13.3
2023-02-11T12:53:04.882Z,13.2
2023-02-11T12:55:04.749Z,13.2
2023-02-11T12:57:04.740Z,13.4
2023-02-11T12:59:04.811Z,13.3
2023-02-11T13:01:04.757Z,13.4
2023-02-11T13:03:04.913Z,13.5
2023-02-11T13:05:04.712Z,13.5
2023-02-11T13:07:04.771Z,13.7
2023-02-11T13:09:04.889Z,13.7
2023-02-11T13:11:04.719Z,13.7
2023-02-11T13:13:07.496Z,13.8
2023-02-11T13:15:04.817Z,13.9
2023-02-11T13:17:04.688Z,13.9
2023-02-11T13:19:04.714Z,13.8
2023-02-11T13:21:04.714Z,13.9
2023-02-11T13:23:04.680Z,14
2023-02-11T13:25:04.769Z,14
2023-02-11T13:27:04.720Z,14
2023-02-11T13:29:04.664Z,14
2023-02-11T13:31:04.885Z,14.1
2023-02-11T13:33:04.740Z,14.1
2023-02-11T13:35:04.727Z,14.1
2023-02-11T13:37:04.772Z,14
2023-02-11T13:39:04.921Z,14
2023-02-11T13:41:04.752Z,14.1
2023-02-11T13:43:04.679Z,14.1
2023-02-11T13:45:04.718Z,14.2
2023-02-11T13:47:04.811Z,14.3
2023-02-11T13:49:04.668Z,14.2
2023-02-11T13:51:04.722Z,14.4
2023-02-11T13:53:04.708Z,14.4
2023-02-11T13:55:04.655Z,14.4
2023-02-11T13:57:04.763Z,14.6
2023-02-11T13:59:04.664Z,14.5
2023-02-11T14:01:07.470Z,14.6
2023-02-11T14:03:04.685Z,14.7
2023-02-11T14:05:04.812Z,14.8
2023-02-11T14:07:04.702Z,14.6
2023-02-11T14:09:06.064Z,14.7
2023-02-11T14:11:04.686Z,14.8
2023-02-11T14:13:04.754Z,14.9
2023-02-11T14:15:07.693Z,15.1
2023-02-11T14:17:04.814Z,15.2
2023-02-11T14:19:05.930Z,15.3
2023-02-11T14:21:04.749Z,15.2
2023-02-11T14:23:04.639Z,15.3
2023-02-11T14:25:04.662Z,15.2
2023-02-11T14:27:04.611Z,15.4
2023-02-11T14:29:04.629Z,15.3
2023-02-11T14:31:04.779Z,15.4
2023-02-11T14:33:04.715Z,15.3
2023-02-11T14:35:05.806Z,15.3
2023-02-11T14:37:04.610Z,15.4
2023-02-11T14:39:04.624Z,15.4
2023-02-11T14:41:04.905Z,15.4
2023-02-11T14:43:04.770Z,15.7
2023-02-11T14:45:04.698Z,15.7
2023-02-11T14:47:04.606Z,15.8
2023-02-11T14:49:04.729Z,15.5
2023-02-11T14:51:04.735Z,15.5
2023-02-11T14:53:04.669Z,15.4
2023-02-11T14:55:04.557Z,15.4
2023-02-11T14:57:04.683Z,15.6
2023-02-11T14:59:04.679Z,15.5
2023-02-11T15:01:04.654Z,15.6
2023-02-11T15:03:04.597Z,15.5
2023-02-11T15:05:04.606Z,15.3
2023-02-11T15:07:04.697Z,15.4
2023-02-11T15:09:04.624Z,15.2
2023-02-11T15:11:04.622Z,15.2
2023-02-11T15:13:05.873Z,15.2
2023-02-11T15:15:07.046Z,15.2
2023-02-11T15:17:04.867Z,15.2
2023-02-11T15:19:04.630Z,15.1
2023-02-11T15:21:04.533Z,15.2
2023-02-11T15:23:04.578Z,15.5
2023-02-11T15:25:04.545Z,15.5
2023-02-11T15:27:04.592Z,15.4
2023-02-11T15:29:04.533Z,15.3
2023-02-11T15:31:04.640Z,15.3
2023-02-11T15:33:05.811Z,15
2023-02-11T15:35:04.695Z,14.9
2023-02-11T15:37:04.555Z,14.9
2023-02-11T15:39:04.548Z,15
2023-02-11T15:41:04.530Z,15.2
2023-02-11T15:43:04.519Z,15.1
2023-02-11T15:45:04.517Z,15.1
2023-02-11T15:47:04.500Z,15
2023-02-11T15:49:04.494Z,15.1
2023-02-11T15:51:04.577Z,14.9
2023-02-11T15:53:04.546Z,14.9
2023-02-11T15:55:04.542Z,14.9
2023-02-11T15:57:04.519Z,15
2023-02-11T15:59:04.493Z,14.9
2023-02-11T16:01:04.529Z,15.1
2023-02-11T16:03:04.573Z,15.1
2023-02-11T16:05:04.513Z,15.1
2023-02-11T16:07:04.562Z,15.3
2023-02-11T16:09:05.558Z,15.3
2023-02-11T16:11:04.538Z,15.6
2023-02-11T16:13:04.469Z,15.4
2023-02-11T16:15:15.055Z,15.4
2023-02-11T16:17:05.892Z,15.4
2023-02-11T16:19:15.137Z,15.5
2023-02-11T16:21:04.656Z,15.7
2023-02-11T16:23:04.547Z,15.9
2023-02-11T16:25:04.464Z,16.1
2023-02-11T16:27:04.521Z,16.1
2023-02-11T16:29:05.877Z,15.7
2023-02-11T16:31:04.594Z,15.6
2023-02-11T16:33:04.428Z,15.6
2023-02-11T16:35:05.701Z,15.7
2023-02-11T16:37:04.481Z,15.7
2023-02-11T16:39:04.561Z,15.7
2023-02-11T16:41:04.432Z,15.6
2023-02-11T16:43:04.398Z,15.7
2023-02-11T16:45:04.472Z,15.8
2023-02-11T16:47:04.562Z,15.7
2023-02-11T16:49:04.473Z,15.6
2023-02-11T16:51:04.452Z,15.8
2023-02-11T16:53:04.638Z,15.9
2023-02-11T16:55:09.236Z,16
2023-02-11T16:56:17.386Z,16.1
2023-02-11T16:58:17.448Z,16.2
2023-02-11T17:00:17.430Z,16
2023-02-11T17:02:17.453Z,15.9
2023-02-11T17:04:17.501Z,16.1
2023-02-11T17:06:21.602Z,16
2023-02-11T17:08:17.402Z,16
2023-02-11T17:10:17.469Z,15.8
2023-02-11T17:12:21.880Z,15.5
2023-02-11T17:14:17.394Z,15.4
2023-02-11T17:16:17.445Z,15.6
2023-02-11T17:17:03.878Z,15.7
2023-02-11T17:18:11.140Z,15.9
2023-02-11T17:20:11.113Z,15.8
2023-02-11T17:22:11.151Z,15.7
2023-02-11T17:24:11.114Z,15.6
2023-02-11T17:26:11.144Z,15.5
2023-02-11T17:28:11.165Z,15.4
2023-02-11T17:30:11.100Z,15.5
2023-02-11T17:32:11.165Z,15.4
2023-02-11T17:34:11.119Z,15.6
2023-02-11T17:36:11.073Z,15.7
2023-02-11T17:38:11.104Z,15.9
2023-02-11T17:40:11.103Z,15.6
2023-02-11T17:42:13.624Z,15.6
2023-02-11T17:43:17.602Z,15.6
2023-02-11T17:45:18.571Z,15.6
2023-02-11T17:47:17.601Z,15.8
2023-02-11T17:49:17.589Z,15.9
2023-02-11T17:51:17.579Z,16
2023-02-11T17:53:17.597Z,16.2
2023-02-11T17:55:17.617Z,16.3
2023-02-11T17:57:17.563Z,16.2
2023-02-11T17:59:17.654Z,16.2
2023-02-11T18:01:17.620Z,16.1
2023-02-11T18:03:14.374Z,16.3
2023-02-11T18:04:50.741Z,16.1
2023-02-11T18:06:50.554Z,16.4
2023-02-11T18:08:51.629Z,16.4
2023-02-11T18:10:59.091Z,16.4
2023-02-11T18:12:50.558Z,16.4
2023-02-11T18:14:50.521Z,16.5
2023-02-11T18:16:50.662Z,16.8
2023-02-11T18:18:50.533Z,16.6
2023-02-11T18:20:50.664Z,16.1
2023-02-11T18:22:50.529Z,16.3
2023-02-11T18:24:50.476Z,16.3
2023-02-11T18:26:50.700Z,16.3
2023-02-11T18:28:50.653Z,16
2023-02-11T18:30:51.756Z,16.2
2023-02-11T18:32:51.813Z,16.2
2023-02-11T18:34:50.501Z,16.2
2023-02-11T18:36:50.571Z,16.3
2023-02-11T18:37:56.515Z,16.1
2023-02-11T18:38:53.901Z,16.1
2023-02-11T18:40:53.896Z,16.2
2023-02-11T18:42:53.917Z,16.4
2023-02-11T18:44:53.911Z,16.4
2023-02-11T18:46:53.834Z,16.3
2023-02-11T18:48:56.022Z,16.3
2023-02-11T18:50:53.866Z,16.3
2023-02-11T18:52:53.932Z,16.2
2023-02-11T18:54:53.893Z,16.2
2023-02-11T18:56:55.306Z,16.4
2023-02-11T18:58:53.970Z,16.3
2023-02-11T19:00:53.892Z,16.1
2023-02-11T19:02:53.973Z,16.1
2023-02-11T19:04:53.883Z,16.3
2023-02-11T19:06:54.048Z,16.3
2023-02-11T19:08:53.848Z,15.9
2023-02-11T19:10:53.877Z,15.9
2023-02-11T19:12:54.942Z,16.1
2023-02-11T19:14:53.833Z,16.2
2023-02-11T19:16:54.015Z,16.3
2023-02-11T19:18:53.862Z,16.6
2023-02-11T19:20:53.858Z,16.7
2023-02-11T19:22:55.205Z,16.7
2023-02-11T19:23:56.209Z,16.7
2023-02-11T19:24:54.079Z,16.6
2023-02-11T19:26:53.864Z,16.4
2023-02-11T19:28:53.857Z,16.2
2023-02-11T19:30:54.004Z,16
2023-02-11T19:32:53.761Z,16
2023-02-11T19:34:56.822Z,16.1
2023-02-11T19:36:53.824Z,16
2023-02-11T19:38:53.762Z,15.8
2023-02-11T19:40:50.530Z,15.8
2023-02-11T19:40:57.991Z,15.9
2023-02-11T19:42:53.911Z,15.9
2023-02-11T19:44:53.806Z,16
2023-02-11T19:46:55.799Z,16.2
2023-02-11T19:48:53.992Z,16.5
2023-02-11T19:50:53.808Z,16.6
2023-02-11T19:52:54.872Z,16.8
2023-02-11T19:54:53.799Z,16.5
2023-02-11T19:56:53.851Z,16.5
2023-02-11T19:58:53.857Z,16.3
2023-02-11T20:00:55.037Z,16.5
2023-02-11T20:02:53.882Z,16.6
2023-02-11T20:04:56.328Z,16.5
2023-02-11T20:05:45.569Z,16.6
2023-02-11T20:07:15.416Z,16.4
2023-02-11T20:09:15.373Z,16.3
2023-02-11T20:11:15.404Z,16.3
2023-02-11T20:13:15.442Z,16.2
2023-02-11T20:15:15.387Z,16.2
2023-02-11T20:17:15.476Z,16.2
2023-02-11T20:19:15.384Z,16
2023-02-11T20:21:16.605Z,15.7
2023-02-11T20:23:15.405Z,15.6
2023-02-11T20:24:52.360Z,15.6
2023-02-11T20:26:06.986Z,15.5
2023-02-11T20:28:06.801Z,15.4
2023-02-11T20:30:06.981Z,15.2
2023-02-11T20:31:21.156Z,15.2
2023-02-11T20:32:08.386Z,15.1
2023-02-11T20:34:06.756Z,15
2023-02-11T20:36:06.776Z,15.1
2023-02-11T20:38:06.757Z,15.2
2023-02-11T20:40:06.830Z,15.2
2023-02-11T20:42:06.782Z,15
2023-02-11T20:44:06.810Z,15.2
2023-02-11T20:46:06.754Z,15.4
2023-02-11T20:46:41.982Z,15.5
2023-02-11T20:48:09.784Z,15.5
2023-02-11T20:50:09.808Z,15.6
2023-02-11T20:52:09.791Z,15.6
2023-02-11T20:54:09.784Z,15.7
2023-02-11T20:56:09.793Z,15.7
2023-02-11T20:58:09.787Z,15.6
2023-02-11T21:00:09.776Z,15.5
2023-02-11T21:02:09.812Z,15.6
2023-02-11T21:04:09.770Z,15.6
2023-02-11T21:06:09.780Z,15.6
2023-02-11T21:08:09.784Z,15.6
2023-02-11T21:10:09.744Z,15.5
2023-02-11T21:12:09.769Z,15.4
2023-02-11T21:14:09.781Z,15.3
2023-02-11T21:16:09.804Z,15.2
2023-02-11T21:18:09.737Z,15.2
2023-02-11T21:20:09.814Z,15.1
2023-02-11T21:22:09.748Z,15
2023-02-11T21:24:09.775Z,15.2
2023-02-11T21:26:09.812Z,14.9
2023-02-11T21:28:09.801Z,14.7
2023-02-11T21:30:09.745Z,14.6
2023-02-11T21:32:09.865Z,14.5
2023-02-11T21:34:15.725Z,14.6
2023-02-11T21:36:30.037Z,14.5
2023-02-11T21:38:09.755Z,14.3
2023-02-11T21:40:09.729Z,14.3
2023-02-11T21:42:09.740Z,14.2
2023-02-11T21:44:09.730Z,14.2
2023-02-11T21:46:09.749Z,14.2
2023-02-11T21:48:09.710Z,14.2
2023-02-11T21:50:09.713Z,14.1
2023-02-11T21:52:09.776Z,14.1
2023-02-11T21:54:07.619Z,14.1
2023-02-11T21:55:03.398Z,14.1
2023-02-11T21:57:03.396Z,14.2
2023-02-11T21:59:10.142Z,14.1
2023-02-11T22:01:03.406Z,13.8
2023-02-11T22:03:13.644Z,13.8
2023-02-11T22:05:03.372Z,13.8
2023-02-11T22:07:03.352Z,13.8
2023-02-11T22:09:26.160Z,13.7
2023-02-11T22:11:03.359Z,13.6
2023-02-11T22:13:03.420Z,13.6
2023-02-11T22:15:03.323Z,13.4
2023-02-11T22:17:03.447Z,13.3
2023-02-11T22:19:03.295Z,13.2
2023-02-11T22:21:07.407Z,13.2
2023-02-11T22:23:03.343Z,13
2023-02-11T22:25:04.679Z,13
2023-02-11T22:27:04.301Z,13.1
2023-02-11T22:29:03.246Z,13.1
2023-02-11T22:31:03.369Z,13
2023-02-11T22:33:03.339Z,12.9
2023-02-11T22:35:03.437Z,12.8
2023-02-11T22:35:27.072Z,13
2023-02-11T22:36:17.553Z,12.9
2023-02-11T22:38:17.556Z,12.8
2023-02-11T22:40:17.517Z,12.7
2023-02-11T22:42:17.509Z,12.5
2023-02-11T22:44:17.580Z,12.5
2023-02-11T22:46:17.703Z,12.5
2023-02-11T22:48:17.550Z,12.5
2023-02-11T22:50:17.546Z,12.5
2023-02-11T22:52:17.529Z,12.4
2023-02-11T22:54:17.519Z,12.3
2023-02-11T22:56:17.503Z,12.3
2023-02-11T22:58:17.523Z,12.3
2023-02-11T23:00:17.483Z,12.2
2023-02-11T23:02:17.694Z,12.2
2023-02-11T23:04:17.481Z,12.2
2023-02-11T23:06:17.513Z,12.2
2023-02-11T23:08:17.539Z,12.3
2023-02-11T23:10:17.518Z,12.2
2023-02-11T23:12:17.472Z,12.1
2023-02-11T23:14:17.469Z,12.1
2023-02-11T23:16:17.534Z,12
2023-02-11T23:18:17.487Z,12.1
2023-02-11T23:20:17.480Z,12
2023-02-11T23:22:17.488Z,12
2023-02-11T23:24:17.474Z,11.9
2023-02-11T23:26:17.469Z,11.8
2023-02-11T23:28:17.541Z,11.8
2023-02-11T23:30:17.455Z,11.8
2023-02-11T23:32:17.520Z,11.8
2023-02-11T23:34:17.499Z,11.8
2023-02-11T23:36:17.493Z,11.8
2023-02-11T23:38:17.472Z,11.9
2023-02-11T23:40:17.484Z,11.8
2023-02-11T23:42:17.501Z,11.8
2023-02-11T23:44:17.507Z,11.7
2023-02-11T23:46:17.506Z,11.7
2023-02-11T23:48:17.429Z,11.7
2023-02-11T23:50:17.465Z,11.7
2023-02-11T23:52:17.453Z,11.5
2023-02-11T23:54:17.453Z,11.5
2023-02-11T23:56:17.439Z,11.5
2023-02-11T23:58:17.510Z,11.5
